sensor_id;sensor_type;location;lat;lon;timestamp;P1;durP1;ratioP1;P2;durP2;ratioP2
77322;SDS011;66384;51.052;9.850;2023-06-19T00:00:07;13.20;;;8.20;;
77322;SDS011;66384;51.052;9.850;2023-06-19T00:02:41;9.20;;;7.60;;
77322;SDS011;66384;51.052;9.850;2023-06-19T00:05:11;10.10;;;7.40;;
77322;SDS011;66384;51.052;9.850;2023-06-19T00:07:41;8.90;;;7.80;;
77322;SDS011;66384;51.052;9.850;2023-06-19T00:10:10;13.00;;;8.70;;
77322;SDS011;66384;51.052;9.850;2023-06-19T00:12:39;11.10;;;8.40;;
77322;SDS011;66384;51.052;9.850;2023-06-19T00:15:09;9.90;;;8.40;;
77322;SDS011;66384;51.052;9.850;2023-06-19T00:17:39;11.20;;;8.40;;
77322;SDS011;66384;51.052;9.850;2023-06-19T00:20:09;10.80;;;8.00;;
77322;SDS011;66384;51.052;9.850;2023-06-19T00:22:40;9.50;;;8.00;;
77322;SDS011;66384;51.052;9.850;2023-06-19T00:25:09;10.70;;;8.70;;
77322;SDS011;66384;51.052;9.850;2023-06-19T00:27:38;11.70;;;8.40;;
77322;SDS011;66384;51.052;9.850;2023-06-19T00:30:08;10.20;;;7.80;;
77322;SDS011;66384;51.052;9.850;2023-06-19T00:32:38;17.90;;;8.90;;
77322;SDS011;66384;51.052;9.850;2023-06-19T00:35:14;12.50;;;9.00;;
77322;SDS011;66384;51.052;9.850;2023-06-19T00:37:44;10.50;;;7.90;;
77322;SDS011;66384;51.052;9.850;2023-06-19T00:40:15;11.30;;;8.90;;
77322;SDS011;66384;51.052;9.850;2023-06-19T00:42:48;12.50;;;8.80;;
77322;SDS011;66384;51.052;9.850;2023-06-19T00:45:18;11.30;;;8.10;;
77322;SDS011;66384;51.052;9.850;2023-06-19T00:47:47;11.20;;;8.90;;
77322;SDS011;66384;51.052;9.850;2023-06-19T00:50:17;9.50;;;7.50;;
77322;SDS011;66384;51.052;9.850;2023-06-19T00:52:46;9.60;;;8.20;;
77322;SDS011;66384;51.052;9.850;2023-06-19T00:55:16;9.90;;;8.00;;
77322;SDS011;66384;51.052;9.850;2023-06-19T00:57:45;10.50;;;8.30;;
77322;SDS011;66384;51.052;9.850;2023-06-19T01:00:15;10.90;;;8.70;;
77322;SDS011;66384;51.052;9.850;2023-06-19T01:02:45;11.60;;;9.20;;
77322;SDS011;66384;51.052;9.850;2023-06-19T01:07:44;10.60;;;8.10;;
77322;SDS011;66384;51.052;9.850;2023-06-19T01:10:18;9.60;;;7.60;;
77322;SDS011;66384;51.052;9.850;2023-06-19T01:12:52;10.30;;;7.20;;
77322;SDS011;66384;51.052;9.850;2023-06-19T01:17:56;12.10;;;8.00;;
77322;SDS011;66384;51.052;9.850;2023-06-19T01:20:27;10.30;;;8.40;;
77322;SDS011;66384;51.052;9.850;2023-06-19T01:23:00;10.90;;;8.80;;
77322;SDS011;66384;51.052;9.850;2023-06-19T01:25:35;9.00;;;7.00;;
77322;SDS011;66384;51.052;9.850;2023-06-19T01:30:36;10.80;;;7.50;;
77322;SDS011;66384;51.052;9.850;2023-06-19T01:33:08;10.40;;;8.90;;
77322;SDS011;66384;51.052;9.850;2023-06-19T01:35:40;14.40;;;8.90;;
77322;SDS011;66384;51.052;9.850;2023-06-19T01:38:12;10.50;;;9.00;;
77322;SDS011;66384;51.052;9.850;2023-06-19T01:40:42;11.00;;;8.70;;
77322;SDS011;66384;51.052;9.850;2023-06-19T01:43:12;9.60;;;7.90;;
77322;SDS011;66384;51.052;9.850;2023-06-19T01:45:42;13.90;;;7.70;;
77322;SDS011;66384;51.052;9.850;2023-06-19T01:48:12;13.40;;;8.80;;
77322;SDS011;66384;51.052;9.850;2023-06-19T01:50:44;11.00;;;9.10;;
77322;SDS011;66384;51.052;9.850;2023-06-19T01:53:14;10.60;;;8.40;;
77322;SDS011;66384;51.052;9.850;2023-06-19T01:55:43;11.80;;;9.40;;
77322;SDS011;66384;51.052;9.850;2023-06-19T01:58:13;12.00;;;8.00;;
77322;SDS011;66384;51.052;9.850;2023-06-19T02:00:43;11.80;;;8.60;;
77322;SDS011;66384;51.052;9.850;2023-06-19T02:03:13;12.10;;;9.10;;
77322;SDS011;66384;51.052;9.850;2023-06-19T02:05:42;11.00;;;9.20;;
77322;SDS011;66384;51.052;9.850;2023-06-19T02:08:12;10.50;;;8.40;;
77322;SDS011;66384;51.052;9.850;2023-06-19T02:10:41;9.90;;;8.60;;
77322;SDS011;66384;51.052;9.850;2023-06-19T02:13:10;10.60;;;8.30;;
77322;SDS011;66384;51.052;9.850;2023-06-19T02:15:40;10.30;;;8.40;;
77322;SDS011;66384;51.052;9.850;2023-06-19T02:18:09;9.90;;;8.30;;
77322;SDS011;66384;51.052;9.850;2023-06-19T02:20:38;9.90;;;8.10;;
77322;SDS011;66384;51.052;9.850;2023-06-19T02:25:36;11.50;;;9.40;;
77322;SDS011;66384;51.052;9.850;2023-06-19T02:28:06;11.50;;;8.90;;
77322;SDS011;66384;51.052;9.850;2023-06-19T02:30:35;11.20;;;9.00;;
77322;SDS011;66384;51.052;9.850;2023-06-19T02:33:04;11.70;;;9.70;;
77322;SDS011;66384;51.052;9.850;2023-06-19T02:35:34;10.20;;;7.90;;
77322;SDS011;66384;51.052;9.850;2023-06-19T02:38:03;9.90;;;8.60;;
77322;SDS011;66384;51.052;9.850;2023-06-19T02:40:32;14.00;;;8.70;;
77322;SDS011;66384;51.052;9.850;2023-06-19T02:43:01;13.20;;;9.10;;
77322;SDS011;66384;51.052;9.850;2023-06-19T02:45:30;10.50;;;8.10;;
77322;SDS011;66384;51.052;9.850;2023-06-19T02:48:00;11.70;;;9.20;;
77322;SDS011;66384;51.052;9.850;2023-06-19T02:50:29;11.90;;;8.20;;
77322;SDS011;66384;51.052;9.850;2023-06-19T02:52:58;10.30;;;8.00;;
77322;SDS011;66384;51.052;9.850;2023-06-19T02:55:27;11.30;;;8.20;;
77322;SDS011;66384;51.052;9.850;2023-06-19T02:57:57;11.70;;;8.70;;
77322;SDS011;66384;51.052;9.850;2023-06-19T03:00:26;14.40;;;9.10;;
77322;SDS011;66384;51.052;9.850;2023-06-19T03:02:56;10.00;;;8.20;;
77322;SDS011;66384;51.052;9.850;2023-06-19T03:05:25;10.60;;;8.60;;
77322;SDS011;66384;51.052;9.850;2023-06-19T03:07:54;19.30;;;9.10;;
77322;SDS011;66384;51.052;9.850;2023-06-19T03:10:23;11.40;;;8.50;;
77322;SDS011;66384;51.052;9.850;2023-06-19T03:12:53;12.30;;;9.90;;
77322;SDS011;66384;51.052;9.850;2023-06-19T03:15:22;10.00;;;7.80;;
77322;SDS011;66384;51.052;9.850;2023-06-19T03:17:51;10.10;;;7.90;;
77322;SDS011;66384;51.052;9.850;2023-06-19T03:20:21;10.90;;;8.20;;
77322;SDS011;66384;51.052;9.850;2023-06-19T03:22:50;12.30;;;8.50;;
77322;SDS011;66384;51.052;9.850;2023-06-19T03:25:19;11.20;;;9.00;;
77322;SDS011;66384;51.052;9.850;2023-06-19T03:27:49;11.80;;;9.30;;
77322;SDS011;66384;51.052;9.850;2023-06-19T03:30:18;13.50;;;9.20;;
77322;SDS011;66384;51.052;9.850;2023-06-19T03:32:47;11.60;;;9.30;;
77322;SDS011;66384;51.052;9.850;2023-06-19T03:35:16;10.80;;;9.00;;
77322;SDS011;66384;51.052;9.850;2023-06-19T03:37:45;14.20;;;9.40;;
77322;SDS011;66384;51.052;9.850;2023-06-19T03:40:15;13.60;;;9.80;;
77322;SDS011;66384;51.052;9.850;2023-06-19T03:42:44;14.20;;;8.90;;
77322;SDS011;66384;51.052;9.850;2023-06-19T03:45:13;14.20;;;9.40;;
77322;SDS011;66384;51.052;9.850;2023-06-19T03:47:42;13.20;;;9.60;;
77322;SDS011;66384;51.052;9.850;2023-06-19T03:50:12;12.60;;;9.10;;
77322;SDS011;66384;51.052;9.850;2023-06-19T03:52:41;12.20;;;9.10;;
77322;SDS011;66384;51.052;9.850;2023-06-19T03:55:10;11.10;;;9.00;;
77322;SDS011;66384;51.052;9.850;2023-06-19T03:57:40;11.00;;;9.70;;
77322;SDS011;66384;51.052;9.850;2023-06-19T04:00:09;11.40;;;8.80;;
77322;SDS011;66384;51.052;9.850;2023-06-19T04:02:40;10.70;;;8.90;;
77322;SDS011;66384;51.052;9.850;2023-06-19T04:05:09;11.10;;;9.00;;
77322;SDS011;66384;51.052;9.850;2023-06-19T04:07:38;11.00;;;9.40;;
77322;SDS011;66384;51.052;9.850;2023-06-19T04:10:08;11.00;;;8.60;;
77322;SDS011;66384;51.052;9.850;2023-06-19T04:12:38;10.50;;;8.70;;
77322;SDS011;66384;51.052;9.850;2023-06-19T04:15:08;12.90;;;8.80;;
77322;SDS011;66384;51.052;9.850;2023-06-19T04:17:38;11.00;;;8.60;;
77322;SDS011;66384;51.052;9.850;2023-06-19T04:20:08;12.30;;;9.30;;
77322;SDS011;66384;51.052;9.850;2023-06-19T04:22:38;15.40;;;11.80;;
77322;SDS011;66384;51.052;9.850;2023-06-19T04:25:10;15.20;;;10.10;;
77322;SDS011;66384;51.052;9.850;2023-06-19T04:27:40;14.30;;;10.20;;
77322;SDS011;66384;51.052;9.850;2023-06-19T04:30:11;16.00;;;9.80;;
77322;SDS011;66384;51.052;9.850;2023-06-19T04:32:40;11.80;;;9.80;;
77322;SDS011;66384;51.052;9.850;2023-06-19T04:35:10;11.90;;;9.50;;
77322;SDS011;66384;51.052;9.850;2023-06-19T04:37:39;10.60;;;9.30;;
77322;SDS011;66384;51.052;9.850;2023-06-19T04:40:09;13.40;;;9.70;;
77322;SDS011;66384;51.052;9.850;2023-06-19T04:45:07;11.40;;;9.00;;
77322;SDS011;66384;51.052;9.850;2023-06-19T04:47:38;10.70;;;9.00;;
77322;SDS011;66384;51.052;9.850;2023-06-19T04:50:08;9.70;;;8.80;;
77322;SDS011;66384;51.052;9.850;2023-06-19T04:52:37;12.60;;;8.90;;
77322;SDS011;66384;51.052;9.850;2023-06-19T04:55:07;14.00;;;8.90;;
77322;SDS011;66384;51.052;9.850;2023-06-19T04:57:37;12.50;;;9.20;;
77322;SDS011;66384;51.052;9.850;2023-06-19T05:00:07;12.30;;;9.10;;
77322;SDS011;66384;51.052;9.850;2023-06-19T05:02:39;10.70;;;8.90;;
77322;SDS011;66384;51.052;9.850;2023-06-19T05:05:10;11.10;;;9.90;;
77322;SDS011;66384;51.052;9.850;2023-06-19T05:07:40;14.00;;;9.70;;
77322;SDS011;66384;51.052;9.850;2023-06-19T05:10:11;19.10;;;13.60;;
77322;SDS011;66384;51.052;9.850;2023-06-19T05:12:40;15.50;;;11.50;;
77322;SDS011;66384;51.052;9.850;2023-06-19T05:15:10;12.30;;;9.50;;
77322;SDS011;66384;51.052;9.850;2023-06-19T05:17:40;12.60;;;9.80;;
77322;SDS011;66384;51.052;9.850;2023-06-19T05:20:13;13.90;;;10.00;;
77322;SDS011;66384;51.052;9.850;2023-06-19T05:22:42;16.10;;;9.80;;
77322;SDS011;66384;51.052;9.850;2023-06-19T05:25:11;12.50;;;9.20;;
77322;SDS011;66384;51.052;9.850;2023-06-19T05:27:41;12.60;;;9.90;;
77322;SDS011;66384;51.052;9.850;2023-06-19T05:30:11;16.10;;;11.10;;
77322;SDS011;66384;51.052;9.850;2023-06-19T05:32:41;11.40;;;10.10;;
77322;SDS011;66384;51.052;9.850;2023-06-19T05:35:10;12.80;;;9.80;;
77322;SDS011;66384;51.052;9.850;2023-06-19T05:37:39;16.00;;;10.00;;
77322;SDS011;66384;51.052;9.850;2023-06-19T05:40:10;12.30;;;10.20;;
77322;SDS011;66384;51.052;9.850;2023-06-19T05:42:40;14.20;;;10.50;;
77322;SDS011;66384;51.052;9.850;2023-06-19T05:45:10;12.10;;;9.90;;
77322;SDS011;66384;51.052;9.850;2023-06-19T05:47:39;13.20;;;10.70;;
77322;SDS011;66384;51.052;9.850;2023-06-19T05:50:11;15.00;;;11.20;;
77322;SDS011;66384;51.052;9.850;2023-06-19T05:52:40;14.20;;;10.60;;
77322;SDS011;66384;51.052;9.850;2023-06-19T05:55:10;16.00;;;10.50;;
77322;SDS011;66384;51.052;9.850;2023-06-19T05:57:39;12.10;;;9.90;;
77322;SDS011;66384;51.052;9.850;2023-06-19T06:00:10;15.90;;;11.40;;
77322;SDS011;66384;51.052;9.850;2023-06-19T06:02:51;15.80;;;11.00;;
77322;SDS011;66384;51.052;9.850;2023-06-19T06:05:26;15.50;;;10.40;;
77322;SDS011;66384;51.052;9.850;2023-06-19T06:07:55;12.90;;;10.90;;
77322;SDS011;66384;51.052;9.850;2023-06-19T06:10:25;14.90;;;11.20;;
77322;SDS011;66384;51.052;9.850;2023-06-19T06:12:55;13.20;;;10.30;;
77322;SDS011;66384;51.052;9.850;2023-06-19T06:15:24;11.60;;;9.70;;
77322;SDS011;66384;51.052;9.850;2023-06-19T06:17:54;12.40;;;10.40;;
77322;SDS011;66384;51.052;9.850;2023-06-19T06:20:23;11.70;;;10.20;;
77322;SDS011;66384;51.052;9.850;2023-06-19T06:22:52;13.20;;;11.00;;
77322;SDS011;66384;51.052;9.850;2023-06-19T06:25:22;12.20;;;10.40;;
77322;SDS011;66384;51.052;9.850;2023-06-19T06:27:51;14.20;;;11.40;;
77322;SDS011;66384;51.052;9.850;2023-06-19T06:30:20;18.60;;;13.20;;
77322;SDS011;66384;51.052;9.850;2023-06-19T06:32:50;17.60;;;11.30;;
77322;SDS011;66384;51.052;9.850;2023-06-19T06:35:19;13.80;;;10.50;;
77322;SDS011;66384;51.052;9.850;2023-06-19T06:37:48;13.80;;;10.90;;
77322;SDS011;66384;51.052;9.850;2023-06-19T06:40:18;15.60;;;11.60;;
77322;SDS011;66384;51.052;9.850;2023-06-19T06:42:47;17.60;;;12.30;;
77322;SDS011;66384;51.052;9.850;2023-06-19T06:45:16;16.00;;;11.30;;
77322;SDS011;66384;51.052;9.850;2023-06-19T06:47:46;13.30;;;11.60;;
77322;SDS011;66384;51.052;9.850;2023-06-19T06:50:15;15.10;;;12.50;;
77322;SDS011;66384;51.052;9.850;2023-06-19T06:52:44;13.70;;;11.90;;
77322;SDS011;66384;51.052;9.850;2023-06-19T06:55:13;13.30;;;11.30;;
77322;SDS011;66384;51.052;9.850;2023-06-19T06:57:43;15.60;;;11.40;;
77322;SDS011;66384;51.052;9.850;2023-06-19T07:00:13;14.80;;;11.30;;
77322;SDS011;66384;51.052;9.850;2023-06-19T07:02:44;14.40;;;10.70;;
77322;SDS011;66384;51.052;9.850;2023-06-19T07:05:14;16.00;;;12.20;;
77322;SDS011;66384;51.052;9.850;2023-06-19T07:07:44;16.20;;;11.80;;
77322;SDS011;66384;51.052;9.850;2023-06-19T07:10:13;14.50;;;12.60;;
77322;SDS011;66384;51.052;9.850;2023-06-19T07:12:46;13.20;;;11.40;;
77322;SDS011;66384;51.052;9.850;2023-06-19T07:15:16;14.70;;;13.10;;
77322;SDS011;66384;51.052;9.850;2023-06-19T07:17:46;13.60;;;11.20;;
77322;SDS011;66384;51.052;9.850;2023-06-19T07:20:15;14.50;;;11.60;;
77322;SDS011;66384;51.052;9.850;2023-06-19T07:22:44;15.30;;;11.70;;
77322;SDS011;66384;51.052;9.850;2023-06-19T07:25:14;15.20;;;11.40;;
77322;SDS011;66384;51.052;9.850;2023-06-19T07:27:43;11.80;;;10.50;;
77322;SDS011;66384;51.052;9.850;2023-06-19T07:30:13;16.60;;;11.00;;
77322;SDS011;66384;51.052;9.850;2023-06-19T07:32:42;15.90;;;12.50;;
77322;SDS011;66384;51.052;9.850;2023-06-19T07:35:12;13.10;;;10.80;;
77322;SDS011;66384;51.052;9.850;2023-06-19T07:37:41;14.80;;;11.60;;
77322;SDS011;66384;51.052;9.850;2023-06-19T07:40:11;16.60;;;11.60;;
77322;SDS011;66384;51.052;9.850;2023-06-19T07:42:40;13.80;;;10.90;;
77322;SDS011;66384;51.052;9.850;2023-06-19T07:45:11;14.40;;;11.80;;
77322;SDS011;66384;51.052;9.850;2023-06-19T07:47:41;16.40;;;13.10;;
77322;SDS011;66384;51.052;9.850;2023-06-19T07:50:10;15.00;;;11.70;;
77322;SDS011;66384;51.052;9.850;2023-06-19T07:52:40;18.60;;;14.30;;
77322;SDS011;66384;51.052;9.850;2023-06-19T07:55:09;13.40;;;10.50;;
77322;SDS011;66384;51.052;9.850;2023-06-19T07:57:38;14.20;;;12.20;;
77322;SDS011;66384;51.052;9.850;2023-06-19T08:00:09;12.10;;;10.30;;
77322;SDS011;66384;51.052;9.850;2023-06-19T08:02:39;15.00;;;9.60;;
77322;SDS011;66384;51.052;9.850;2023-06-19T08:05:09;12.50;;;10.60;;
77322;SDS011;66384;51.052;9.850;2023-06-19T08:07:39;12.40;;;9.30;;
77322;SDS011;66384;51.052;9.850;2023-06-19T08:10:09;14.80;;;12.00;;
77322;SDS011;66384;51.052;9.850;2023-06-19T08:12:40;11.90;;;9.50;;
77322;SDS011;66384;51.052;9.850;2023-06-19T08:15:10;12.00;;;9.90;;
77322;SDS011;66384;51.052;9.850;2023-06-19T08:17:40;13.20;;;10.30;;
77322;SDS011;66384;51.052;9.850;2023-06-19T08:20:10;13.30;;;9.20;;
77322;SDS011;66384;51.052;9.850;2023-06-19T08:22:39;8.90;;;7.70;;
77322;SDS011;66384;51.052;9.850;2023-06-19T08:25:09;11.30;;;9.40;;
77322;SDS011;66384;51.052;9.850;2023-06-19T08:27:38;10.10;;;9.00;;
77322;SDS011;66384;51.052;9.850;2023-06-19T08:30:08;11.60;;;9.20;;
77322;SDS011;66384;51.052;9.850;2023-06-19T08:32:38;13.10;;;9.90;;
77322;SDS011;66384;51.052;9.850;2023-06-19T08:35:07;11.70;;;9.00;;
77322;SDS011;66384;51.052;9.850;2023-06-19T08:37:36;11.50;;;8.70;;
77322;SDS011;66384;51.052;9.850;2023-06-19T08:40:07;10.20;;;9.00;;
77322;SDS011;66384;51.052;9.850;2023-06-19T08:42:37;11.70;;;9.80;;
77322;SDS011;66384;51.052;9.850;2023-06-19T08:45:09;10.20;;;8.80;;
77322;SDS011;66384;51.052;9.850;2023-06-19T08:47:38;9.90;;;8.30;;
77322;SDS011;66384;51.052;9.850;2023-06-19T08:50:08;11.80;;;8.90;;
77322;SDS011;66384;51.052;9.850;2023-06-19T08:52:38;11.60;;;8.80;;
77322;SDS011;66384;51.052;9.850;2023-06-19T08:55:07;13.30;;;10.20;;
77322;SDS011;66384;51.052;9.850;2023-06-19T08:57:37;9.90;;;8.80;;
77322;SDS011;66384;51.052;9.850;2023-06-19T09:00:08;9.60;;;8.60;;
77322;SDS011;66384;51.052;9.850;2023-06-19T09:02:39;15.10;;;9.90;;
77322;SDS011;66384;51.052;9.850;2023-06-19T09:05:11;17.90;;;8.90;;
77322;SDS011;66384;51.052;9.850;2023-06-19T09:07:42;9.80;;;7.70;;
77322;SDS011;66384;51.052;9.850;2023-06-19T09:10:18;10.70;;;8.30;;
77322;SDS011;66384;51.052;9.850;2023-06-19T09:12:57;9.50;;;7.50;;
77322;SDS011;66384;51.052;9.850;2023-06-19T09:15:28;8.40;;;7.00;;
77322;SDS011;66384;51.052;9.850;2023-06-19T09:18:04;9.90;;;8.20;;
77322;SDS011;66384;51.052;9.850;2023-06-19T09:20:35;9.20;;;7.80;;
77322;SDS011;66384;51.052;9.850;2023-06-19T09:23:08;7.60;;;6.80;;
77322;SDS011;66384;51.052;9.850;2023-06-19T09:25:44;8.40;;;7.50;;
77322;SDS011;66384;51.052;9.850;2023-06-19T09:28:18;9.70;;;7.30;;
77322;SDS011;66384;51.052;9.850;2023-06-19T09:30:52;7.90;;;6.90;;
77322;SDS011;66384;51.052;9.850;2023-06-19T09:33:24;9.00;;;7.30;;
77322;SDS011;66384;51.052;9.850;2023-06-19T09:35:55;7.70;;;6.90;;
77322;SDS011;66384;51.052;9.850;2023-06-19T09:38:26;8.90;;;7.80;;
77322;SDS011;66384;51.052;9.850;2023-06-19T09:40:56;7.50;;;6.30;;
77322;SDS011;66384;51.052;9.850;2023-06-19T09:43:30;10.30;;;7.40;;
77322;SDS011;66384;51.052;9.850;2023-06-19T09:46:04;8.20;;;7.10;;
77322;SDS011;66384;51.052;9.850;2023-06-19T09:48:40;8.50;;;7.60;;
77322;SDS011;66384;51.052;9.850;2023-06-19T09:51:12;9.30;;;6.90;;
77322;SDS011;66384;51.052;9.850;2023-06-19T09:53:47;9.00;;;7.50;;
77322;SDS011;66384;51.052;9.850;2023-06-19T09:56:17;8.40;;;7.40;;
77322;SDS011;66384;51.052;9.850;2023-06-19T09:58:48;8.30;;;6.90;;
77322;SDS011;66384;51.052;9.850;2023-06-19T10:01:20;8.80;;;7.20;;
77322;SDS011;66384;51.052;9.850;2023-06-19T10:03:50;7.70;;;6.90;;
77322;SDS011;66384;51.052;9.850;2023-06-19T10:06:31;7.40;;;6.60;;
77322;SDS011;66384;51.052;9.850;2023-06-19T10:09:09;13.10;;;7.60;;
77322;SDS011;66384;51.052;9.850;2023-06-19T10:11:47;8.70;;;7.10;;
77322;SDS011;66384;51.052;9.850;2023-06-19T10:14:18;8.90;;;7.40;;
77322;SDS011;66384;51.052;9.850;2023-06-19T10:16:48;7.70;;;6.90;;
77322;SDS011;66384;51.052;9.850;2023-06-19T10:19:18;12.00;;;8.10;;
77322;SDS011;66384;51.052;9.850;2023-06-19T10:21:48;9.10;;;7.50;;
77322;SDS011;66384;51.052;9.850;2023-06-19T10:24:19;8.60;;;7.70;;
77322;SDS011;66384;51.052;9.850;2023-06-19T10:26:58;9.50;;;7.20;;
77322;SDS011;66384;51.052;9.850;2023-06-19T10:29:37;9.80;;;8.20;;
77322;SDS011;66384;51.052;9.850;2023-06-19T10:32:07;8.70;;;7.40;;
77322;SDS011;66384;51.052;9.850;2023-06-19T10:34:36;7.90;;;7.00;;
77322;SDS011;66384;51.052;9.850;2023-06-19T10:37:06;8.80;;;7.70;;
77322;SDS011;66384;51.052;9.850;2023-06-19T10:39:35;9.70;;;7.90;;
77322;SDS011;66384;51.052;9.850;2023-06-19T10:42:06;8.30;;;7.50;;
77322;SDS011;66384;51.052;9.850;2023-06-19T10:44:37;8.30;;;7.40;;
77322;SDS011;66384;51.052;9.850;2023-06-19T10:47:08;9.80;;;8.00;;
77322;SDS011;66384;51.052;9.850;2023-06-19T10:49:37;8.80;;;7.80;;
77322;SDS011;66384;51.052;9.850;2023-06-19T10:52:07;11.80;;;8.10;;
77322;SDS011;66384;51.052;9.850;2023-06-19T10:54:37;7.40;;;6.60;;
77322;SDS011;66384;51.052;9.850;2023-06-19T10:57:06;8.00;;;7.10;;
77322;SDS011;66384;51.052;9.850;2023-06-19T10:59:36;12.00;;;7.80;;
77322;SDS011;66384;51.052;9.850;2023-06-19T11:02:06;9.20;;;7.10;;
77322;SDS011;66384;51.052;9.850;2023-06-19T11:04:38;9.50;;;8.50;;
77322;SDS011;66384;51.052;9.850;2023-06-19T11:07:07;11.40;;;7.20;;
77322;SDS011;66384;51.052;9.850;2023-06-19T11:09:37;9.60;;;8.00;;
77322;SDS011;66384;51.052;9.850;2023-06-19T11:12:07;8.10;;;7.20;;
77322;SDS011;66384;51.052;9.850;2023-06-19T11:14:37;7.90;;;7.00;;
77322;SDS011;66384;51.052;9.850;2023-06-19T11:17:08;9.90;;;7.70;;
77322;SDS011;66384;51.052;9.850;2023-06-19T11:19:37;7.90;;;7.10;;
77322;SDS011;66384;51.052;9.850;2023-06-19T11:22:10;7.30;;;6.60;;
77322;SDS011;66384;51.052;9.850;2023-06-19T11:24:44;7.20;;;6.50;;
77322;SDS011;66384;51.052;9.850;2023-06-19T11:27:18;10.90;;;6.90;;
77322;SDS011;66384;51.052;9.850;2023-06-19T11:29:55;6.00;;;5.40;;
77322;SDS011;66384;51.052;9.850;2023-06-19T11:32:30;6.90;;;6.20;;
77322;SDS011;66384;51.052;9.850;2023-06-19T11:35:06;6.80;;;5.90;;
77322;SDS011;66384;51.052;9.850;2023-06-19T11:37:39;7.80;;;5.60;;
77322;SDS011;66384;51.052;9.850;2023-06-19T11:40:10;6.10;;;5.50;;
77322;SDS011;66384;51.052;9.850;2023-06-19T11:42:51;7.40;;;5.80;;
77322;SDS011;66384;51.052;9.850;2023-06-19T11:45:22;7.50;;;6.00;;
77322;SDS011;66384;51.052;9.850;2023-06-19T11:47:51;6.70;;;6.00;;
77322;SDS011;66384;51.052;9.850;2023-06-19T11:50:25;6.20;;;5.60;;
77322;SDS011;66384;51.052;9.850;2023-06-19T11:52:55;7.80;;;5.30;;
77322;SDS011;66384;51.052;9.850;2023-06-19T11:55:26;6.20;;;5.00;;
77322;SDS011;66384;51.052;9.850;2023-06-19T11:57:56;9.50;;;5.80;;
77322;SDS011;66384;51.052;9.850;2023-06-19T12:00:25;7.80;;;5.60;;
77322;SDS011;66384;51.052;9.850;2023-06-19T12:02:54;6.30;;;5.10;;
77322;SDS011;66384;51.052;9.850;2023-06-19T12:05:25;5.90;;;4.60;;
77322;SDS011;66384;51.052;9.850;2023-06-19T12:07:54;5.60;;;4.60;;
77322;SDS011;66384;51.052;9.850;2023-06-19T12:10:23;5.90;;;4.60;;
77322;SDS011;66384;51.052;9.850;2023-06-19T12:12:53;5.90;;;4.30;;
77322;SDS011;66384;51.052;9.850;2023-06-19T12:15:22;8.40;;;4.90;;
77322;SDS011;66384;51.052;9.850;2023-06-19T12:17:52;7.20;;;5.30;;
77322;SDS011;66384;51.052;9.850;2023-06-19T12:20:24;6.30;;;4.40;;
77322;SDS011;66384;51.052;9.850;2023-06-19T12:22:53;5.00;;;4.50;;
77322;SDS011;66384;51.052;9.850;2023-06-19T12:25:23;6.40;;;5.30;;
77322;SDS011;66384;51.052;9.850;2023-06-19T12:27:52;7.30;;;4.70;;
77322;SDS011;66384;51.052;9.850;2023-06-19T12:30:21;6.40;;;4.90;;
77322;SDS011;66384;51.052;9.850;2023-06-19T12:32:51;6.90;;;5.00;;
77322;SDS011;66384;51.052;9.850;2023-06-19T12:35:20;5.80;;;4.70;;
77322;SDS011;66384;51.052;9.850;2023-06-19T12:37:49;5.60;;;4.70;;
77322;SDS011;66384;51.052;9.850;2023-06-19T12:40:19;5.80;;;4.80;;
77322;SDS011;66384;51.052;9.850;2023-06-19T12:42:48;7.90;;;5.20;;
77322;SDS011;66384;51.052;9.850;2023-06-19T12:45:17;6.80;;;5.50;;
77322;SDS011;66384;51.052;9.850;2023-06-19T12:47:47;5.20;;;4.60;;
77322;SDS011;66384;51.052;9.850;2023-06-19T12:50:16;5.90;;;5.30;;
77322;SDS011;66384;51.052;9.850;2023-06-19T12:52:46;6.10;;;5.30;;
77322;SDS011;66384;51.052;9.850;2023-06-19T12:55:15;6.90;;;5.50;;
77322;SDS011;66384;51.052;9.850;2023-06-19T12:57:45;8.10;;;6.60;;
77322;SDS011;66384;51.052;9.850;2023-06-19T13:00:14;6.20;;;5.00;;
77322;SDS011;66384;51.052;9.850;2023-06-19T13:02:44;6.50;;;5.80;;
77322;SDS011;66384;51.052;9.850;2023-06-19T13:05:13;6.30;;;5.60;;
77322;SDS011;66384;51.052;9.850;2023-06-19T13:07:43;6.30;;;4.80;;
77322;SDS011;66384;51.052;9.850;2023-06-19T13:10:12;6.50;;;4.90;;
77322;SDS011;66384;51.052;9.850;2023-06-19T13:12:41;5.80;;;5.10;;
77322;SDS011;66384;51.052;9.850;2023-06-19T13:15:11;7.00;;;5.60;;
77322;SDS011;66384;51.052;9.850;2023-06-19T13:17:40;6.10;;;5.10;;
77322;SDS011;66384;51.052;9.850;2023-06-19T13:20:10;6.00;;;5.30;;
77322;SDS011;66384;51.052;9.850;2023-06-19T13:22:40;6.40;;;5.70;;
77322;SDS011;66384;51.052;9.850;2023-06-19T13:25:09;8.10;;;5.80;;
77322;SDS011;66384;51.052;9.850;2023-06-19T13:27:39;6.50;;;5.50;;
77322;SDS011;66384;51.052;9.850;2023-06-19T13:30:09;6.50;;;4.90;;
77322;SDS011;66384;51.052;9.850;2023-06-19T13:32:39;10.30;;;4.80;;
77322;SDS011;66384;51.052;9.850;2023-06-19T13:35:09;6.60;;;5.40;;
77322;SDS011;66384;51.052;9.850;2023-06-19T13:37:38;4.90;;;4.20;;
77322;SDS011;66384;51.052;9.850;2023-06-19T13:40:08;7.40;;;5.20;;
77322;SDS011;66384;51.052;9.850;2023-06-19T13:42:38;5.70;;;4.20;;
77322;SDS011;66384;51.052;9.850;2023-06-19T13:45:08;9.40;;;5.20;;
77322;SDS011;66384;51.052;9.850;2023-06-19T13:47:38;5.60;;;4.90;;
77322;SDS011;66384;51.052;9.850;2023-06-19T13:50:07;5.00;;;4.20;;
77322;SDS011;66384;51.052;9.850;2023-06-19T13:52:41;5.30;;;4.20;;
77322;SDS011;66384;51.052;9.850;2023-06-19T13:55:10;6.00;;;4.40;;
77322;SDS011;66384;51.052;9.850;2023-06-19T13:57:39;6.30;;;5.10;;
77322;SDS011;66384;51.052;9.850;2023-06-19T14:00:10;4.80;;;4.10;;
77322;SDS011;66384;51.052;9.850;2023-06-19T14:02:41;6.50;;;4.50;;
77322;SDS011;66384;51.052;9.850;2023-06-19T14:05:10;6.10;;;4.80;;
77322;SDS011;66384;51.052;9.850;2023-06-19T14:07:41;8.70;;;6.20;;
77322;SDS011;66384;51.052;9.850;2023-06-19T14:10:11;7.40;;;5.40;;
77322;SDS011;66384;51.052;9.850;2023-06-19T14:12:40;5.50;;;4.90;;
77322;SDS011;66384;51.052;9.850;2023-06-19T14:15:09;7.20;;;5.10;;
77322;SDS011;66384;51.052;9.850;2023-06-19T14:17:39;5.90;;;5.00;;
77322;SDS011;66384;51.052;9.850;2023-06-19T14:20:10;6.70;;;4.50;;
77322;SDS011;66384;51.052;9.850;2023-06-19T14:22:39;5.70;;;5.00;;
77322;SDS011;66384;51.052;9.850;2023-06-19T14:25:09;6.00;;;5.30;;
77322;SDS011;66384;51.052;9.850;2023-06-19T14:27:38;7.10;;;5.40;;
77322;SDS011;66384;51.052;9.850;2023-06-19T14:30:08;6.10;;;5.50;;
77322;SDS011;66384;51.052;9.850;2023-06-19T14:35:06;6.10;;;5.50;;
77322;SDS011;66384;51.052;9.850;2023-06-19T14:40:04;5.00;;;4.40;;
77322;SDS011;66384;51.052;9.850;2023-06-19T14:42:35;8.90;;;4.80;;
77322;SDS011;66384;51.052;9.850;2023-06-19T14:45:05;6.20;;;4.60;;
77322;SDS011;66384;51.052;9.850;2023-06-19T14:47:35;6.10;;;5.20;;
77322;SDS011;66384;51.052;9.850;2023-06-19T14:50:06;5.40;;;4.50;;
77322;SDS011;66384;51.052;9.850;2023-06-19T14:52:36;7.30;;;4.70;;
77322;SDS011;66384;51.052;9.850;2023-06-19T14:55:05;5.50;;;4.90;;
77322;SDS011;66384;51.052;9.850;2023-06-19T14:57:35;6.80;;;5.30;;
77322;SDS011;66384;51.052;9.850;2023-06-19T15:00:05;7.30;;;5.00;;
77322;SDS011;66384;51.052;9.850;2023-06-19T15:02:36;7.70;;;5.10;;
77322;SDS011;66384;51.052;9.850;2023-06-19T15:05:06;7.50;;;6.60;;
77322;SDS011;66384;51.052;9.850;2023-06-19T15:07:36;7.50;;;4.90;;
77322;SDS011;66384;51.052;9.850;2023-06-19T15:10:05;6.10;;;4.90;;
77322;SDS011;66384;51.052;9.850;2023-06-19T15:12:35;6.80;;;5.70;;